Saipan International Airport

Date: 2024-06-11 09:46:00Z

Type: SPECI

Weather: Light Rain

Winds: 110° at 11 kts

Visibility: 6

Ceiling (AGL FT): Clouds FEW at 1000, BROKEN at 3000, BROKEN at 7000, BROKEN at 5400

RAW METAR: PGSN 110946Z 11011KT 6SM -RA BR FEW010CB BKN030 BKN070 27/24 A2993 RMK AO2 RAE0858B28 CB VC NW-NE MOV SW P0015 T02670244 $

project-image